Terminal Aerodrome Forecast
Issued by NWS

Home | Current Version | Previous Version | Graphics & Text | Print | Product List | Glossary On
Versions: 1 2 3 4 5 6 7 8 9 10 11 12 13 14 15 16 17 18 19
000
FTUS43 KGRB 291700
TAFAUW
TAF
KAUW 291726Z 2918/3018 01008KT P6SM SCT011 OVC030
      TEMPO 2918/2922 BKN011
     FM300000 02008KT P6SM BKN018
     FM300700 04004KT P6SM SCT012
     FM301400 07006KT P6SM SCT020=

USA.gov is the U.S. government's official web portal to all federal, state and local government web resources and services.